sensor_id;sensor_type;location;lat;lon;timestamp;temperature;humidity
1377;DHT22;682;52.502;13.488;2023-07-16T00:02:06;22.60;1.00
1377;DHT22;682;52.502;13.488;2023-07-16T00:04:33;22.70;1.00
1377;DHT22;682;52.502;13.488;2023-07-16T00:07:00;22.70;1.00
1377;DHT22;682;52.502;13.488;2023-07-16T00:09:29;22.70;1.00
1377;DHT22;682;52.502;13.488;2023-07-16T00:11:56;22.80;1.00
1377;DHT22;682;52.502;13.488;2023-07-16T00:14:23;22.90;1.00
1377;DHT22;682;52.502;13.488;2023-07-16T00:16:50;23.00;1.00
1377;DHT22;682;52.502;13.488;2023-07-16T00:19:17;23.00;1.00
1377;DHT22;682;52.502;13.488;2023-07-16T00:21:44;23.00;1.00
1377;DHT22;682;52.502;13.488;2023-07-16T00:24:11;23.10;1.00
1377;DHT22;682;52.502;13.488;2023-07-16T00:26:39;23.10;1.00
1377;DHT22;682;52.502;13.488;2023-07-16T00:29:06;23.20;1.00
1377;DHT22;682;52.502;13.488;2023-07-16T00:31:34;23.20;1.00
1377;DHT22;682;52.502;13.488;2023-07-16T00:34:01;23.20;1.00
1377;DHT22;682;52.502;13.488;2023-07-16T00:36:28;23.10;1.00
1377;DHT22;682;52.502;13.488;2023-07-16T00:38:55;23.10;1.00
1377;DHT22;682;52.502;13.488;2023-07-16T00:41:22;23.10;1.00
1377;DHT22;682;52.502;13.488;2023-07-16T00:43:50;23.00;1.00
1377;DHT22;682;52.502;13.488;2023-07-16T00:46:20;23.00;1.00
1377;DHT22;682;52.502;13.488;2023-07-16T00:48:47;22.90;1.00
1377;DHT22;682;52.502;13.488;2023-07-16T00:51:14;23.00;1.00
1377;DHT22;682;52.502;13.488;2023-07-16T00:53:42;23.00;1.00
1377;DHT22;682;52.502;13.488;2023-07-16T00:56:10;23.10;1.00
1377;DHT22;682;52.502;13.488;2023-07-16T00:58:40;23.10;1.00
1377;DHT22;682;52.502;13.488;2023-07-16T01:01:08;23.10;1.00
1377;DHT22;682;52.502;13.488;2023-07-16T01:03:36;23.00;1.00
1377;DHT22;682;52.502;13.488;2023-07-16T01:06:07;22.90;1.00
1377;DHT22;682;52.502;13.488;2023-07-16T01:08:41;22.70;1.00
1377;DHT22;682;52.502;13.488;2023-07-16T01:11:08;22.60;1.00
1377;DHT22;682;52.502;13.488;2023-07-16T01:13:36;22.50;1.00
1377;DHT22;682;52.502;13.488;2023-07-16T01:16:04;22.30;1.00
1377;DHT22;682;52.502;13.488;2023-07-16T01:18:32;22.20;1.00
1377;DHT22;682;52.502;13.488;2023-07-16T01:20:59;22.00;1.00
1377;DHT22;682;52.502;13.488;2023-07-16T01:23:34;21.90;1.00
1377;DHT22;682;52.502;13.488;2023-07-16T01:26:23;21.70;1.00
1377;DHT22;682;52.502;13.488;2023-07-16T01:31:51;21.20;1.00
1377;DHT22;682;52.502;13.488;2023-07-16T01:34:19;21.10;1.00
1377;DHT22;682;52.502;13.488;2023-07-16T01:36:46;21.00;1.00
1377;DHT22;682;52.502;13.488;2023-07-16T01:39:13;20.90;1.00
1377;DHT22;682;52.502;13.488;2023-07-16T01:41:41;20.90;1.00
1377;DHT22;682;52.502;13.488;2023-07-16T01:44:08;20.90;1.00
1377;DHT22;682;52.502;13.488;2023-07-16T01:46:35;20.90;1.00
1377;DHT22;682;52.502;13.488;2023-07-16T01:49:03;20.80;1.00
1377;DHT22;682;52.502;13.488;2023-07-16T01:51:30;20.80;1.00
1377;DHT22;682;52.502;13.488;2023-07-16T01:53:57;20.80;1.00
1377;DHT22;682;52.502;13.488;2023-07-16T01:56:24;20.90;1.00
1377;DHT22;682;52.502;13.488;2023-07-16T01:58:51;21.00;1.00
1377;DHT22;682;52.502;13.488;2023-07-16T02:01:18;21.10;1.00
1377;DHT22;682;52.502;13.488;2023-07-16T02:03:45;21.20;1.00
1377;DHT22;682;52.502;13.488;2023-07-16T02:06:13;21.30;1.00
1377;DHT22;682;52.502;13.488;2023-07-16T02:08:40;21.50;1.00
1377;DHT22;682;52.502;13.488;2023-07-16T02:11:07;21.60;1.00
1377;DHT22;682;52.502;13.488;2023-07-16T02:13:34;21.80;1.00
1377;DHT22;682;52.502;13.488;2023-07-16T02:16:01;22.10;1.00
1377;DHT22;682;52.502;13.488;2023-07-16T02:18:28;22.30;1.00
1377;DHT22;682;52.502;13.488;2023-07-16T02:20:55;22.50;1.00
1377;DHT22;682;52.502;13.488;2023-07-16T02:23:25;22.50;1.00
1377;DHT22;682;52.502;13.488;2023-07-16T02:25:52;22.40;1.00
1377;DHT22;682;52.502;13.488;2023-07-16T02:28:19;22.10;1.00
1377;DHT22;682;52.502;13.488;2023-07-16T02:30:46;21.80;1.00
1377;DHT22;682;52.502;13.488;2023-07-16T02:33:13;21.60;1.00
1377;DHT22;682;52.502;13.488;2023-07-16T02:35:40;21.50;1.00
1377;DHT22;682;52.502;13.488;2023-07-16T02:38:07;21.30;1.00
1377;DHT22;682;52.502;13.488;2023-07-16T02:40:36;21.20;1.00
1377;DHT22;682;52.502;13.488;2023-07-16T02:43:08;21.10;1.00
1377;DHT22;682;52.502;13.488;2023-07-16T02:45:35;21.00;1.00
1377;DHT22;682;52.502;13.488;2023-07-16T02:48:02;20.90;1.00
1377;DHT22;682;52.502;13.488;2023-07-16T02:50:29;20.90;1.00
1377;DHT22;682;52.502;13.488;2023-07-16T02:52:56;20.90;1.00
1377;DHT22;682;52.502;13.488;2023-07-16T02:55:23;20.90;1.00
1377;DHT22;682;52.502;13.488;2023-07-16T02:57:52;20.90;1.00
1377;DHT22;682;52.502;13.488;2023-07-16T03:00:19;20.90;1.00
1377;DHT22;682;52.502;13.488;2023-07-16T03:02:46;20.90;1.00
1377;DHT22;682;52.502;13.488;2023-07-16T03:05:15;20.90;1.00
1377;DHT22;682;52.502;13.488;2023-07-16T03:07:42;20.90;1.00
1377;DHT22;682;52.502;13.488;2023-07-16T03:10:10;20.80;1.00
1377;DHT22;682;52.502;13.488;2023-07-16T03:12:37;20.80;1.00
1377;DHT22;682;52.502;13.488;2023-07-16T03:15:06;20.80;1.00
1377;DHT22;682;52.502;13.488;2023-07-16T03:17:34;20.70;1.00
1377;DHT22;682;52.502;13.488;2023-07-16T03:20:01;20.60;1.00
1377;DHT22;682;52.502;13.488;2023-07-16T03:22:28;20.60;1.00
1377;DHT22;682;52.502;13.488;2023-07-16T03:24:55;20.60;1.00
1377;DHT22;682;52.502;13.488;2023-07-16T03:27:22;20.50;1.00
1377;DHT22;682;52.502;13.488;2023-07-16T03:29:49;20.50;1.00
1377;DHT22;682;52.502;13.488;2023-07-16T03:32:17;20.40;1.00
1377;DHT22;682;52.502;13.488;2023-07-16T03:34:44;20.40;1.00
1377;DHT22;682;52.502;13.488;2023-07-16T03:37:11;20.40;1.00
1377;DHT22;682;52.502;13.488;2023-07-16T03:39:38;20.30;1.00
1377;DHT22;682;52.502;13.488;2023-07-16T03:42:05;20.40;1.00
1377;DHT22;682;52.502;13.488;2023-07-16T03:44:32;20.30;1.00
1377;DHT22;682;52.502;13.488;2023-07-16T03:46:59;20.30;1.00
1377;DHT22;682;52.502;13.488;2023-07-16T03:49:27;20.30;1.00
1377;DHT22;682;52.502;13.488;2023-07-16T03:51:54;20.30;1.00
1377;DHT22;682;52.502;13.488;2023-07-16T03:54:21;20.20;1.00
1377;DHT22;682;52.502;13.488;2023-07-16T03:56:48;20.30;1.00
1377;DHT22;682;52.502;13.488;2023-07-16T03:59:15;20.30;1.00
1377;DHT22;682;52.502;13.488;2023-07-16T04:01:42;20.30;1.00
1377;DHT22;682;52.502;13.488;2023-07-16T04:04:09;20.30;1.00
1377;DHT22;682;52.502;13.488;2023-07-16T04:06:38;20.40;1.00
1377;DHT22;682;52.502;13.488;2023-07-16T04:09:05;20.40;1.00
1377;DHT22;682;52.502;13.488;2023-07-16T04:11:32;20.40;1.00
1377;DHT22;682;52.502;13.488;2023-07-16T04:13:59;20.50;1.00
1377;DHT22;682;52.502;13.488;2023-07-16T04:16:26;20.60;1.00
1377;DHT22;682;52.502;13.488;2023-07-16T04:18:53;20.60;1.00
1377;DHT22;682;52.502;13.488;2023-07-16T04:21:20;20.60;1.00
1377;DHT22;682;52.502;13.488;2023-07-16T04:23:49;20.60;1.00
1377;DHT22;682;52.502;13.488;2023-07-16T04:26:16;20.60;1.00
1377;DHT22;682;52.502;13.488;2023-07-16T04:28:43;20.50;1.00
1377;DHT22;682;52.502;13.488;2023-07-16T04:31:10;20.50;1.00
1377;DHT22;682;52.502;13.488;2023-07-16T04:33:37;20.60;1.00
1377;DHT22;682;52.502;13.488;2023-07-16T04:36:04;20.60;1.00
1377;DHT22;682;52.502;13.488;2023-07-16T04:38:31;20.60;1.00
1377;DHT22;682;52.502;13.488;2023-07-16T04:40:59;20.70;1.00
1377;DHT22;682;52.502;13.488;2023-07-16T04:43:26;20.70;1.00
1377;DHT22;682;52.502;13.488;2023-07-16T04:45:53;20.60;1.00
1377;DHT22;682;52.502;13.488;2023-07-16T04:48:20;20.50;1.00
1377;DHT22;682;52.502;13.488;2023-07-16T04:50:47;20.60;1.00
1377;DHT22;682;52.502;13.488;2023-07-16T04:53:14;20.50;1.00
1377;DHT22;682;52.502;13.488;2023-07-16T04:55:44;20.40;1.00
1377;DHT22;682;52.502;13.488;2023-07-16T04:58:12;20.40;1.00
1377;DHT22;682;52.502;13.488;2023-07-16T05:00:39;20.50;1.00
1377;DHT22;682;52.502;13.488;2023-07-16T05:03:06;20.50;1.00
1377;DHT22;682;52.502;13.488;2023-07-16T05:05:34;20.60;1.00
1377;DHT22;682;52.502;13.488;2023-07-16T05:08:01;20.70;1.00
1377;DHT22;682;52.502;13.488;2023-07-16T05:10:28;20.80;1.00
1377;DHT22;682;52.502;13.488;2023-07-16T05:12:55;20.90;1.00
1377;DHT22;682;52.502;13.488;2023-07-16T05:15:23;20.90;1.00
1377;DHT22;682;52.502;13.488;2023-07-16T05:17:50;21.00;1.00
1377;DHT22;682;52.502;13.488;2023-07-16T05:20:17;21.00;1.00
1377;DHT22;682;52.502;13.488;2023-07-16T05:22:44;21.10;1.00
1377;DHT22;682;52.502;13.488;2023-07-16T05:25:11;21.20;1.00
1377;DHT22;682;52.502;13.488;2023-07-16T05:27:38;21.30;1.00
1377;DHT22;682;52.502;13.488;2023-07-16T05:30:07;21.40;1.00
1377;DHT22;682;52.502;13.488;2023-07-16T05:32:36;21.40;1.00
1377;DHT22;682;52.502;13.488;2023-07-16T05:35:04;21.50;1.00
1377;DHT22;682;52.502;13.488;2023-07-16T05:37:31;21.50;1.00
1377;DHT22;682;52.502;13.488;2023-07-16T05:39:58;21.60;1.00
1377;DHT22;682;52.502;13.488;2023-07-16T05:42:26;21.90;1.00
1377;DHT22;682;52.502;13.488;2023-07-16T05:44:53;22.10;1.00
1377;DHT22;682;52.502;13.488;2023-07-16T05:47:20;22.00;1.00
1377;DHT22;682;52.502;13.488;2023-07-16T05:49:48;22.10;1.00
1377;DHT22;682;52.502;13.488;2023-07-16T05:52:15;22.00;1.00
1377;DHT22;682;52.502;13.488;2023-07-16T05:54:43;22.10;1.00
1377;DHT22;682;52.502;13.488;2023-07-16T05:57:11;22.10;1.00
1377;DHT22;682;52.502;13.488;2023-07-16T05:59:38;22.10;1.00
1377;DHT22;682;52.502;13.488;2023-07-16T06:02:06;22.10;1.00
1377;DHT22;682;52.502;13.488;2023-07-16T06:04:33;22.20;1.00
1377;DHT22;682;52.502;13.488;2023-07-16T06:07:02;22.30;1.00
1377;DHT22;682;52.502;13.488;2023-07-16T06:09:29;22.40;1.00
1377;DHT22;682;52.502;13.488;2023-07-16T06:11:56;22.50;1.00
1377;DHT22;682;52.502;13.488;2023-07-16T06:14:23;22.50;1.00
1377;DHT22;682;52.502;13.488;2023-07-16T06:16:50;22.50;1.00
1377;DHT22;682;52.502;13.488;2023-07-16T06:19:18;22.50;1.00
1377;DHT22;682;52.502;13.488;2023-07-16T06:21:45;22.70;1.00
1377;DHT22;682;52.502;13.488;2023-07-16T06:24:13;22.80;1.00
1377;DHT22;682;52.502;13.488;2023-07-16T06:26:40;22.80;1.00
1377;DHT22;682;52.502;13.488;2023-07-16T06:29:07;22.90;1.00
1377;DHT22;682;52.502;13.488;2023-07-16T06:31:34;22.80;1.00
1377;DHT22;682;52.502;13.488;2023-07-16T06:34:01;22.90;1.00
1377;DHT22;682;52.502;13.488;2023-07-16T06:36:28;22.90;1.00
1377;DHT22;682;52.502;13.488;2023-07-16T06:38:55;23.00;1.00
1377;DHT22;682;52.502;13.488;2023-07-16T06:41:24;23.10;1.00
1377;DHT22;682;52.502;13.488;2023-07-16T06:43:51;23.10;1.00
1377;DHT22;682;52.502;13.488;2023-07-16T06:46:18;23.30;1.00
1377;DHT22;682;52.502;13.488;2023-07-16T06:48:44;23.40;1.00
1377;DHT22;682;52.502;13.488;2023-07-16T06:51:13;23.40;1.00
1377;DHT22;682;52.502;13.488;2023-07-16T06:53:40;23.50;1.00
1377;DHT22;682;52.502;13.488;2023-07-16T06:56:07;23.60;1.00
1377;DHT22;682;52.502;13.488;2023-07-16T06:58:35;23.70;1.00
1377;DHT22;682;52.502;13.488;2023-07-16T07:01:02;23.80;1.00
1377;DHT22;682;52.502;13.488;2023-07-16T07:03:29;23.80;1.00
1377;DHT22;682;52.502;13.488;2023-07-16T07:06:01;23.90;1.00
1377;DHT22;682;52.502;13.488;2023-07-16T07:08:28;24.00;1.00
1377;DHT22;682;52.502;13.488;2023-07-16T07:10:55;24.20;1.00
1377;DHT22;682;52.502;13.488;2023-07-16T07:13:24;24.40;1.00
1377;DHT22;682;52.502;13.488;2023-07-16T07:15:52;24.60;1.00
1377;DHT22;682;52.502;13.488;2023-07-16T07:18:19;24.70;1.00
1377;DHT22;682;52.502;13.488;2023-07-16T07:20:46;25.00;1.00
1377;DHT22;682;52.502;13.488;2023-07-16T07:23:15;25.10;1.00
1377;DHT22;682;52.502;13.488;2023-07-16T07:25:42;25.00;1.00
1377;DHT22;682;52.502;13.488;2023-07-16T07:28:09;25.00;1.00
1377;DHT22;682;52.502;13.488;2023-07-16T07:30:37;24.90;1.00
1377;DHT22;682;52.502;13.488;2023-07-16T07:33:05;25.10;1.00
1377;DHT22;682;52.502;13.488;2023-07-16T07:35:32;25.00;1.00
1377;DHT22;682;52.502;13.488;2023-07-16T07:37:59;25.00;1.00
1377;DHT22;682;52.502;13.488;2023-07-16T07:40:26;25.10;1.00
1377;DHT22;682;52.502;13.488;2023-07-16T07:42:53;25.10;1.00
1377;DHT22;682;52.502;13.488;2023-07-16T07:45:20;25.20;1.00
1377;DHT22;682;52.502;13.488;2023-07-16T07:47:47;25.30;1.00
1377;DHT22;682;52.502;13.488;2023-07-16T07:50:16;25.40;1.00
1377;DHT22;682;52.502;13.488;2023-07-16T07:52:43;25.80;1.00
1377;DHT22;682;52.502;13.488;2023-07-16T07:55:10;26.00;1.00
1377;DHT22;682;52.502;13.488;2023-07-16T07:57:37;26.00;1.00
1377;DHT22;682;52.502;13.488;2023-07-16T08:00:05;26.20;1.00
1377;DHT22;682;52.502;13.488;2023-07-16T08:02:37;26.30;1.00
1377;DHT22;682;52.502;13.488;2023-07-16T08:05:05;26.20;1.00
1377;DHT22;682;52.502;13.488;2023-07-16T08:07:34;26.20;1.00
1377;DHT22;682;52.502;13.488;2023-07-16T08:10:01;26.10;1.00
1377;DHT22;682;52.502;13.488;2023-07-16T08:12:28;25.90;1.00
1377;DHT22;682;52.502;13.488;2023-07-16T08:14:56;25.70;1.00
1377;DHT22;682;52.502;13.488;2023-07-16T08:17:23;25.40;1.00
1377;DHT22;682;52.502;13.488;2023-07-16T08:19:50;25.30;1.00
1377;DHT22;682;52.502;13.488;2023-07-16T08:22:17;25.30;1.00
1377;DHT22;682;52.502;13.488;2023-07-16T08:24:45;25.50;1.00
1377;DHT22;682;52.502;13.488;2023-07-16T08:27:12;26.10;1.00
1377;DHT22;682;52.502;13.488;2023-07-16T08:29:40;26.40;1.00
1377;DHT22;682;52.502;13.488;2023-07-16T08:32:07;26.30;1.00
1377;DHT22;682;52.502;13.488;2023-07-16T08:34:34;26.10;1.00
1377;DHT22;682;52.502;13.488;2023-07-16T08:37:01;26.00;1.00
1377;DHT22;682;52.502;13.488;2023-07-16T08:39:28;26.00;1.00
1377;DHT22;682;52.502;13.488;2023-07-16T08:41:56;26.10;1.00
1377;DHT22;682;52.502;13.488;2023-07-16T08:44:24;26.10;1.00
1377;DHT22;682;52.502;13.488;2023-07-16T08:46:51;26.20;1.00
1377;DHT22;682;52.502;13.488;2023-07-16T08:49:19;26.20;1.00
1377;DHT22;682;52.502;13.488;2023-07-16T08:51:49;26.20;1.00
1377;DHT22;682;52.502;13.488;2023-07-16T08:54:16;26.20;1.00
1377;DHT22;682;52.502;13.488;2023-07-16T08:56:47;26.30;1.00
1377;DHT22;682;52.502;13.488;2023-07-16T08:59:17;26.30;1.00
1377;DHT22;682;52.502;13.488;2023-07-16T09:01:46;26.50;1.00
1377;DHT22;682;52.502;13.488;2023-07-16T09:04:14;26.70;1.00
1377;DHT22;682;52.502;13.488;2023-07-16T09:06:41;26.90;1.00
1377;DHT22;682;52.502;13.488;2023-07-16T09:09:08;27.00;1.00
1377;DHT22;682;52.502;13.488;2023-07-16T09:11:35;26.90;1.00
1377;DHT22;682;52.502;13.488;2023-07-16T09:14:02;26.90;1.00
1377;DHT22;682;52.502;13.488;2023-07-16T09:16:33;27.00;1.00
1377;DHT22;682;52.502;13.488;2023-07-16T09:19:06;27.10;1.00
1377;DHT22;682;52.502;13.488;2023-07-16T09:21:33;27.20;1.00
1377;DHT22;682;52.502;13.488;2023-07-16T09:24:06;27.60;1.00
1377;DHT22;682;52.502;13.488;2023-07-16T09:26:36;27.80;1.00
1377;DHT22;682;52.502;13.488;2023-07-16T09:29:05;27.90;1.00
1377;DHT22;682;52.502;13.488;2023-07-16T09:31:34;28.00;1.00
1377;DHT22;682;52.502;13.488;2023-07-16T09:34:01;28.30;1.00
1377;DHT22;682;52.502;13.488;2023-07-16T09:36:28;28.50;1.00
1377;DHT22;682;52.502;13.488;2023-07-16T09:38:56;28.50;1.00
1377;DHT22;682;52.502;13.488;2023-07-16T09:41:24;28.70;1.00
1377;DHT22;682;52.502;13.488;2023-07-16T09:43:51;29.30;1.00
1377;DHT22;682;52.502;13.488;2023-07-16T09:46:18;30.00;1.00
1377;DHT22;682;52.502;13.488;2023-07-16T09:48:47;31.00;1.00
1377;DHT22;682;52.502;13.488;2023-07-16T09:51:15;31.60;1.00
1377;DHT22;682;52.502;13.488;2023-07-16T09:53:44;31.20;1.00
1377;DHT22;682;52.502;13.488;2023-07-16T09:56:12;32.00;1.00
1377;DHT22;682;52.502;13.488;2023-07-16T09:58:40;33.00;1.00
1377;DHT22;682;52.502;13.488;2023-07-16T10:01:08;33.00;1.00
1377;DHT22;682;52.502;13.488;2023-07-16T10:03:36;32.70;1.00
1377;DHT22;682;52.502;13.488;2023-07-16T10:06:08;33.30;1.00
1377;DHT22;682;52.502;13.488;2023-07-16T10:08:35;34.10;1.00
1377;DHT22;682;52.502;13.488;2023-07-16T10:11:01;34.90;1.00
1377;DHT22;682;52.502;13.488;2023-07-16T10:13:29;34.50;1.00
1377;DHT22;682;52.502;13.488;2023-07-16T10:15:57;34.30;1.00
1377;DHT22;682;52.502;13.488;2023-07-16T10:18:27;34.50;1.00
1377;DHT22;682;52.502;13.488;2023-07-16T10:21:00;35.30;1.00
1377;DHT22;682;52.502;13.488;2023-07-16T10:23:38;35.90;1.00
1377;DHT22;682;52.502;13.488;2023-07-16T10:26:07;36.30;1.00
1377;DHT22;682;52.502;13.488;2023-07-16T10:28:35;36.90;1.00
1377;DHT22;682;52.502;13.488;2023-07-16T10:31:02;37.30;1.00
1377;DHT22;682;52.502;13.488;2023-07-16T10:33:29;36.90;1.00
1377;DHT22;682;52.502;13.488;2023-07-16T10:35:57;36.30;1.00
1377;DHT22;682;52.502;13.488;2023-07-16T10:38:25;36.60;1.00
1377;DHT22;682;52.502;13.488;2023-07-16T10:40:53;36.90;1.00
1377;DHT22;682;52.502;13.488;2023-07-16T10:43:25;37.30;1.00
1377;DHT22;682;52.502;13.488;2023-07-16T10:45:52;37.60;1.00
1377;DHT22;682;52.502;13.488;2023-07-16T10:48:25;38.40;1.00
1377;DHT22;682;52.502;13.488;2023-07-16T10:50:53;38.70;1.00
1377;DHT22;682;52.502;13.488;2023-07-16T10:53:21;38.80;1.00
1377;DHT22;682;52.502;13.488;2023-07-16T10:55:48;39.30;1.00
1377;DHT22;682;52.502;13.488;2023-07-16T10:58:16;39.10;1.00
1377;DHT22;682;52.502;13.488;2023-07-16T11:00:45;38.20;1.00
1377;DHT22;682;52.502;13.488;2023-07-16T11:03:15;37.50;1.00
1377;DHT22;682;52.502;13.488;2023-07-16T11:05:41;36.80;1.00
1377;DHT22;682;52.502;13.488;2023-07-16T11:08:07;35.50;1.00
1377;DHT22;682;52.502;13.488;2023-07-16T11:10:34;34.50;1.00
1377;DHT22;682;52.502;13.488;2023-07-16T11:13:01;33.80;1.00
1377;DHT22;682;52.502;13.488;2023-07-16T11:15:34;33.20;1.00
1377;DHT22;682;52.502;13.488;2023-07-16T11:18:01;33.20;1.00
1377;DHT22;682;52.502;13.488;2023-07-16T11:20:30;34.20;1.00
1377;DHT22;682;52.502;13.488;2023-07-16T11:22:58;34.70;1.00
1377;DHT22;682;52.502;13.488;2023-07-16T11:25:25;33.90;1.00
1377;DHT22;682;52.502;13.488;2023-07-16T11:27:54;34.00;1.00
1377;DHT22;682;52.502;13.488;2023-07-16T11:30:23;35.60;1.00
1377;DHT22;682;52.502;13.488;2023-07-16T11:32:52;37.00;1.00
1377;DHT22;682;52.502;13.488;2023-07-16T11:35:20;36.70;1.00
1377;DHT22;682;52.502;13.488;2023-07-16T11:37:48;36.10;1.00
1377;DHT22;682;52.502;13.488;2023-07-16T11:40:17;35.40;1.00
1377;DHT22;682;52.502;13.488;2023-07-16T11:42:44;34.60;1.00
1377;DHT22;682;52.502;13.488;2023-07-16T11:45:17;34.30;1.00
1377;DHT22;682;52.502;13.488;2023-07-16T11:47:44;34.80;1.00
1377;DHT22;682;52.502;13.488;2023-07-16T11:50:13;34.00;1.00
1377;DHT22;682;52.502;13.488;2023-07-16T11:52:41;33.10;1.00
1377;DHT22;682;52.502;13.488;2023-07-16T11:55:08;32.90;1.00
1377;DHT22;682;52.502;13.488;2023-07-16T11:57:35;34.40;1.00
1377;DHT22;682;52.502;13.488;2023-07-16T12:00:03;36.20;1.00
1377;DHT22;682;52.502;13.488;2023-07-16T12:02:31;37.80;1.00
1377;DHT22;682;52.502;13.488;2023-07-16T12:04:58;38.80;1.00
1377;DHT22;682;52.502;13.488;2023-07-16T12:07:35;39.60;1.00
1377;DHT22;682;52.502;13.488;2023-07-16T12:10:02;40.50;1.00
1377;DHT22;682;52.502;13.488;2023-07-16T12:12:31;41.30;1.00
1377;DHT22;682;52.502;13.488;2023-07-16T12:14:59;41.60;1.00
1377;DHT22;682;52.502;13.488;2023-07-16T12:17:26;41.20;1.00
1377;DHT22;682;52.502;13.488;2023-07-16T12:19:53;41.70;1.00
1377;DHT22;682;52.502;13.488;2023-07-16T12:22:21;41.70;1.00
1377;DHT22;682;52.502;13.488;2023-07-16T12:24:50;41.10;1.00
1377;DHT22;682;52.502;13.488;2023-07-16T12:27:18;40.70;1.00
1377;DHT22;682;52.502;13.488;2023-07-16T12:29:45;40.90;1.00
1377;DHT22;682;52.502;13.488;2023-07-16T12:32:13;41.10;1.00
1377;DHT22;682;52.502;13.488;2023-07-16T12:34:40;41.30;1.00
1377;DHT22;682;52.502;13.488;2023-07-16T12:37:07;41.30;1.00
1377;DHT22;682;52.502;13.488;2023-07-16T12:39:34;41.20;1.00
1377;DHT22;682;52.502;13.488;2023-07-16T12:42:03;41.70;1.00
1377;DHT22;682;52.502;13.488;2023-07-16T12:44:30;41.90;1.00
1377;DHT22;682;52.502;13.488;2023-07-16T12:46:57;42.10;1.00
1377;DHT22;682;52.502;13.488;2023-07-16T12:49:24;42.10;1.00
1377;DHT22;682;52.502;13.488;2023-07-16T12:51:51;42.00;1.00
1377;DHT22;682;52.502;13.488;2023-07-16T12:54:18;42.20;1.00
1377;DHT22;682;52.502;13.488;2023-07-16T12:56:46;42.70;1.00
1377;DHT22;682;52.502;13.488;2023-07-16T12:59:14;43.10;1.00
1377;DHT22;682;52.502;13.488;2023-07-16T13:01:41;42.70;1.00
1377;DHT22;682;52.502;13.488;2023-07-16T13:04:09;42.00;1.00
1377;DHT22;682;52.502;13.488;2023-07-16T13:06:36;42.40;1.00
1377;DHT22;682;52.502;13.488;2023-07-16T13:09:03;41.80;1.00
1377;DHT22;682;52.502;13.488;2023-07-16T13:11:31;40.00;1.00
1377;DHT22;682;52.502;13.488;2023-07-16T13:13:58;39.30;1.00
1377;DHT22;682;52.502;13.488;2023-07-16T13:16:27;39.90;1.00
1377;DHT22;682;52.502;13.488;2023-07-16T13:18:54;40.50;1.00
1377;DHT22;682;52.502;13.488;2023-07-16T13:21:21;40.40;1.00
1377;DHT22;682;52.502;13.488;2023-07-16T13:23:48;40.90;1.00
1377;DHT22;682;52.502;13.488;2023-07-16T13:26:15;41.60;1.00
1377;DHT22;682;52.502;13.488;2023-07-16T13:28:42;41.40;1.00
1377;DHT22;682;52.502;13.488;2023-07-16T13:31:09;41.50;1.00
1377;DHT22;682;52.502;13.488;2023-07-16T13:33:37;40.00;1.00
1377;DHT22;682;52.502;13.488;2023-07-16T13:36:05;40.10;1.00
1377;DHT22;682;52.502;13.488;2023-07-16T13:38:32;40.40;1.00
1377;DHT22;682;52.502;13.488;2023-07-16T13:40:59;39.20;1.00
1377;DHT22;682;52.502;13.488;2023-07-16T13:43:27;38.90;1.00
1377;DHT22;682;52.502;13.488;2023-07-16T13:45:54;39.40;1.00
1377;DHT22;682;52.502;13.488;2023-07-16T13:48:21;40.10;1.00
1377;DHT22;682;52.502;13.488;2023-07-16T13:50:49;40.10;1.00
1377;DHT22;682;52.502;13.488;2023-07-16T13:53:16;40.00;1.00
1377;DHT22;682;52.502;13.488;2023-07-16T13:55:43;40.60;1.00
1377;DHT22;682;52.502;13.488;2023-07-16T13:58:10;40.10;1.00
1377;DHT22;682;52.502;13.488;2023-07-16T14:00:37;39.50;1.00
1377;DHT22;682;52.502;13.488;2023-07-16T14:03:04;39.50;1.00
1377;DHT22;682;52.502;13.488;2023-07-16T14:05:31;39.20;1.00
1377;DHT22;682;52.502;13.488;2023-07-16T14:08:07;38.60;1.00
1377;DHT22;682;52.502;13.488;2023-07-16T14:10:34;38.50;1.00
1377;DHT22;682;52.502;13.488;2023-07-16T14:13:01;39.40;1.00
1377;DHT22;682;52.502;13.488;2023-07-16T14:15:28;39.80;1.00
1377;DHT22;682;52.502;13.488;2023-07-16T14:17:55;40.40;1.00
1377;DHT22;682;52.502;13.488;2023-07-16T14:20:29;40.80;1.00
1377;DHT22;682;52.502;13.488;2023-07-16T14:22:56;41.10;1.00
1377;DHT22;682;52.502;13.488;2023-07-16T14:25:24;41.10;1.00
1377;DHT22;682;52.502;13.488;2023-07-16T14:27:51;39.80;1.00
1377;DHT22;682;52.502;13.488;2023-07-16T14:30:18;38.40;1.00
1377;DHT22;682;52.502;13.488;2023-07-16T14:32:45;37.50;1.00
1377;DHT22;682;52.502;13.488;2023-07-16T14:35:13;36.10;1.00
1377;DHT22;682;52.502;13.488;2023-07-16T14:37:42;34.80;1.00
1377;DHT22;682;52.502;13.488;2023-07-16T14:40:10;34.10;1.00
1377;DHT22;682;52.502;13.488;2023-07-16T14:42:40;34.90;1.00
1377;DHT22;682;52.502;13.488;2023-07-16T14:45:09;36.10;1.00
1377;DHT22;682;52.502;13.488;2023-07-16T14:47:36;37.40;1.00
1377;DHT22;682;52.502;13.488;2023-07-16T14:50:04;37.90;1.00
1377;DHT22;682;52.502;13.488;2023-07-16T14:52:31;37.50;1.00
1377;DHT22;682;52.502;13.488;2023-07-16T14:54:58;37.70;1.00
1377;DHT22;682;52.502;13.488;2023-07-16T14:57:25;38.50;1.00
1377;DHT22;682;52.502;13.488;2023-07-16T14:59:54;39.20;1.00
1377;DHT22;682;52.502;13.488;2023-07-16T15:02:21;38.80;1.00
1377;DHT22;682;52.502;13.488;2023-07-16T15:04:48;37.80;1.00
1377;DHT22;682;52.502;13.488;2023-07-16T15:07:14;37.10;1.00
1377;DHT22;682;52.502;13.488;2023-07-16T15:09:41;35.80;1.00
1377;DHT22;682;52.502;13.488;2023-07-16T15:12:08;35.30;1.00
1377;DHT22;682;52.502;13.488;2023-07-16T15:14:35;35.90;1.00
1377;DHT22;682;52.502;13.488;2023-07-16T15:17:05;35.50;1.00
1377;DHT22;682;52.502;13.488;2023-07-16T15:19:33;34.40;1.00
1377;DHT22;682;52.502;13.488;2023-07-16T15:22:01;33.70;1.00
1377;DHT22;682;52.502;13.488;2023-07-16T15:24:28;33.50;1.00
1377;DHT22;682;52.502;13.488;2023-07-16T15:26:55;33.10;1.00
1377;DHT22;682;52.502;13.488;2023-07-16T15:29:22;33.00;1.00
1377;DHT22;682;52.502;13.488;2023-07-16T15:31:49;34.20;1.00
1377;DHT22;682;52.502;13.488;2023-07-16T15:34:19;35.60;1.00
1377;DHT22;682;52.502;13.488;2023-07-16T15:36:48;36.90;1.00
1377;DHT22;682;52.502;13.488;2023-07-16T15:39:15;37.80;1.00
1377;DHT22;682;52.502;13.488;2023-07-16T15:41:43;38.60;1.00
1377;DHT22;682;52.502;13.488;2023-07-16T15:44:11;39.20;1.00
1377;DHT22;682;52.502;13.488;2023-07-16T15:46:41;39.50;1.00
1377;DHT22;682;52.502;13.488;2023-07-16T15:49:09;39.70;1.00
1377;DHT22;682;52.502;13.488;2023-07-16T15:51:39;38.90;1.00
1377;DHT22;682;52.502;13.488;2023-07-16T15:54:07;37.60;1.00
1377;DHT22;682;52.502;13.488;2023-07-16T15:56:34;36.60;1.00
1377;DHT22;682;52.502;13.488;2023-07-16T15:59:01;36.60;1.00
1377;DHT22;682;52.502;13.488;2023-07-16T16:01:28;37.10;1.00
1377;DHT22;682;52.502;13.488;2023-07-16T16:03:55;37.00;1.00
1377;DHT22;682;52.502;13.488;2023-07-16T16:06:22;35.90;1.00
1377;DHT22;682;52.502;13.488;2023-07-16T16:08:51;34.90;1.00
1377;DHT22;682;52.502;13.488;2023-07-16T16:11:18;34.90;1.00
1377;DHT22;682;52.502;13.488;2023-07-16T16:13:46;34.90;1.00
1377;DHT22;682;52.502;13.488;2023-07-16T16:16:13;35.20;1.00
1377;DHT22;682;52.502;13.488;2023-07-16T16:18:41;36.00;1.00
1377;DHT22;682;52.502;13.488;2023-07-16T16:21:09;36.70;1.00
1377;DHT22;682;52.502;13.488;2023-07-16T16:23:37;37.30;1.00